Princeton, New Jersey
Current Conditions -  °F | °C
As of 7:53 PM on Friday 24 Oct 2014 (Local Time) from KTTN Reporting Station
Clear Clear  
Wind Chill: 63°   Ceiling: Unl
Heat Index: 63°   Visibility: 10mi
Dew Point: 40°   Wind: 8mph
Humidity: 43%   Direction: 320°NW
Pressure: 29.83"   Gusts: NA
Location:  40.35°N, 74.66°W
Report Text: KTTN 242353Z 32007KT 10SM CLR 17/04 A2983 RMK AO2 SLP096 T01720044 10200 20167 52017
Loading
Personal Weather Stations






























Interactive Weather Map
Tropical Storm Tracking
New forecast layout! Learn more

10-Day Weather Forecast

Advertisements
Track Severe Weather on mobile